CÀNOVES I SAMALÚS (Vallès Oriental)





Hora UTC 03:50
Temperatura 6.3 ºC
Humitat 73.6 %
Pressió 1024.5 hPa
Pluja 0.0 mm
Velocitat vent 1.7 km/h
Direcció vent ENE
Radiació solar 0.1 W/m²

Dades diàries 2023-02-06



Hora UTC (hivern +1h; estiu +2h)
Temperatura (ºC) Humitat (%) Pressió (hPa) Velocitat vent (km/h) Precipitació (mm) Radiació solar (W/m²)
Hora UTC Aire Humitat Pressió Vel. Dir. Vel. Max Dir. Intent. màx 5 min. Rad. Sol.
00:05 5.4 79.5 1025.9 3.4 ESE 3.4 ESE 0.0 0.1
00:10 5.4 79.6 1025.7 1.3 SSE 4.2 SSW 0.0 0.1
00:15 5.8 77.4 1025.6 2.5 N 6.0 NE 0.0 0.1
00:20 6.0 75.8 1025.5 2.0 NNW 6.4 N 0.0 0.1
00:25 6.2 74.6 1025.5 2.0 NW 4.2 N 0.0 0.1
00:30 6.3 74.3 1025.4 1.6 NNW 4.2 NNE 0.0 0.1
00:35 6.3 73.9 1025.4 1.7 WNW 3.9 NNW 0.0 0.1
00:40 6.3 74.0 1025.2 0.8 NW 3.5 NW 0.0 0.1
00:45 6.2 74.2 1025.2 0.3 ESE 1.8 ESE 0.0 0.1
00:50 6.1 74.9 1025.2 2.3 NW 3.5 NW 0.0 0.1
00:55 6.0 75.5 1025.1 0.8 NW 3.2 WNW 0.0 0.1
01:00 6.0 75.7 1025.2 0.1 SSW 2.1 S 0.0 0.1
01:05 6.0 75.5 1025.2 1.0 S 2.8 SE 0.0 0.1
01:10 6.4 73.6 1025.2 2.6 S 3.5 SSW 0.0 0.1
01:15 6.5 71.8 1025.1 2.0 SSE 4.9 SE 0.0 0.1
01:20 6.7 69.6 1025.1 0.3 SSW 3.2 S 0.0 0.1
01:25 6.8 69.0 1025.1 1.8 SE 4.2 SE 0.0 0.1
01:30 6.8 68.6 1025.0 1.3 SSW 2.8 SSW 0.0 0.1
01:35 6.8 68.2 1025.0 1.9 SSW 2.8 SSW 0.0 0.1
01:40 6.6 68.5 1024.9 1.8 SSE 3.9 S 0.0 0.1
01:45 6.5 69.4 1024.9 1.4 NW 3.5 NW 0.0 0.1
01:50 6.3 70.2 1024.7 1.8 W 3.2 WSW 0.0 0.1
01:55 6.2 70.5 1024.5 1.4 NW 2.8 NNW 0.0 0.1
02:00 6.3 71.6 1024.5 3.1 N 4.2 N 0.0 0.1
02:05 6.2 74.0 1024.5 3.4 NNW 4.6 N 0.0 0.1
02:10 6.2 75.1 1024.5 4.2 NNW 5.3 NNW 0.0 0.1
02:15 6.2 75.1 1024.6 3.0 NW 3.9 NNW 0.0 0.1
02:20 6.1 74.3 1024.6 2.4 NW 3.9 NW 0.0 0.1
02:25 6.2 73.8 1024.7 1.0 NNW 2.1 NW 0.0 0.1
02:30 6.3 73.9 1024.7 1.4 NW 2.8 WNW 0.0 0.1
02:35 6.3 74.0 1024.7 2.8 NW 3.9 NW 0.0 0.1
02:40 6.4 73.8 1024.7 1.4 NNW 3.2 NW 0.0 0.1
02:45 6.4 73.9 1024.7 0.0 NNE 0.0 N 0.0 0.1
02:50 6.3 74.3 1024.6 0.0 NNE 0.0 N 0.0 0.1
02:55 6.3 74.7 1024.6 0.0 NNE 0.0 N 0.0 0.1
03:00 6.2 74.9 1024.6 1.7 SSE 2.8 SSE 0.0 0.1
03:05 6.3 74.7 1024.6 0.8 SSE 2.8 SE 0.0 0.1
03:10 6.4 73.9 1024.6 0.8 N 3.9 NE 0.0 0.1
03:15 6.5 72.8 1024.5 1.0 NW 3.2 E 0.0 0.1
03:20 6.6 72.3 1024.4 2.6 WNW 3.9 W 0.0 0.1
03:25 6.7 71.4 1024.3 1.8 W 3.2 WSW 0.0 0.1
03:30 6.7 72.0 1024.3 3.3 NW 5.3 NW 0.0 0.1
03:35 6.7 72.2 1024.4 1.2 NW 3.9 NW 0.0 0.1
03:40 6.7 73.0 1024.4 1.9 ESE 7.4 SE 0.0 0.1
03:45 6.4 73.8 1024.5 2.4 ESE 5.3 ESE 0.0 0.1
03:50 6.3 73.6 1024.5 1.7 ENE 6.4 E 0.0 0.1
Màxima 6.8 79.6 1025.9 4.2 NNW 7.4 SE 0.0 0.1
Mínima 5.2 68.2 1024.3
Total 0.0